Time;durP1;ratioP1;P1;durP2;ratioP2;P2;SDS_P1;SDS_P2;PMS_P1;PMS_P2;Temp;Humidity;BMP_temperature;BMP_pressure;BME280_temperature;BME280_humidity;BME280_pressure;Samples;Min_cycle;Max_cycle;Signal;HPM_P1;HPM_P2
2023/02/12 00:02:14;;;;;;;;;;;;;;;12.63;31.34;97455.44;10424488;28;1977;-51
2023/02/12 00:07:15;;;;;;;;;;;;;;;12.62;31.31;97463.44;10438345;28;1761;-51
2023/02/12 00:12:15;;;;;;;;;;;;;;;12.62;31.23;97459.03;10428668;28;1386;-53
2023/02/12 00:17:15;;;;;;;;;;;;;;;12.63;31.36;97452.06;10436871;28;1525;-53
2023/02/12 00:22:15;;;;;;;;;;;;;;;12.62;31.34;97448.63;10438978;28;1918;-54
2023/02/12 00:27:16;;;;;;;;;;;;;;;12.62;31.38;97448.63;10432380;28;1418;-52
2023/02/12 00:32:19;;;;;;;;;;;;;;;12.62;31.40;97461.66;10436045;28;1818;-53
2023/02/12 00:37:19;;;;;;;;;;;;;;;12.63;31.20;97454.66;10442975;28;1536;-54
2023/02/12 00:42:19;;;;;;;;;;;;;;;12.60;31.43;97447.19;10440484;28;1963;-52
2023/02/12 00:47:20;;;;;;;;;;;;;;;12.63;31.33;97449.44;10440084;28;1551;-48
2023/02/12 00:52:20;;;;;;;;;;;;;;;12.62;31.25;97456.44;10452491;28;1220;-50
2023/02/12 00:57:20;;;;;;;;;;;;;;;12.61;31.22;97457.41;10440794;28;1477;-50
2023/02/12 01:02:20;;;;;;;;;;;;;;;12.62;31.24;97469.44;10445271;28;1902;-51
2023/02/12 01:07:21;;;;;;;;;;;;;;;12.62;31.34;97446.03;10444723;28;1890;-48
2023/02/12 01:12:21;;;;;;;;;;;;;;;12.63;31.32;97454.66;10447999;28;1407;-52
2023/02/12 01:17:21;;;;;;;;;;;;;;;12.62;31.34;97459.03;10443523;28;1584;-54
2023/02/12 01:22:22;;;;;;;;;;;;;;;12.62;31.38;97456.44;10442980;28;1898;-52
2023/02/12 01:27:22;;;;;;;;;;;;;;;12.62;31.30;97458.22;10440925;28;1462;-53
2023/02/12 01:32:22;;;;;;;;;;;;;;;12.62;31.26;97461.66;10414549;28;1349;-49
2023/02/12 01:37:22;;;;;;;;;;;;;;;12.63;31.34;97471.06;10429023;28;1437;-54
2023/02/12 01:42:23;;;;;;;;;;;;;;;12.61;31.24;97467.81;10442804;28;1963;-49
2023/02/12 01:47:23;;;;;;;;;;;;;;;12.62;31.26;97468.63;10431524;28;1442;-49
2023/02/12 01:52:26;;;;;;;;;;;;;;;12.63;31.29;97470.25;10445253;28;1864;-52
2023/02/12 01:57:27;;;;;;;;;;;;;;;12.62;31.36;97459.03;10429038;28;1548;-53
2023/02/12 02:02:27;;;;;;;;;;;;;;;12.63;31.38;97460.63;10444049;28;1906;-53
2023/02/12 02:07:27;;;;;;;;;;;;;;;12.62;31.38;97453.84;10438986;28;1416;-52
2023/02/12 02:17:58;;;;;;;;;;;;;;;12.62;31.30;97456.44;10432505;28;1908;-50
2023/02/12 02:23:17;;;;;;;;;;;;;;;12.62;31.38;97453.84;10417230;28;1184;-51
2023/02/12 02:28:20;;;;;;;;;;;;;;;12.62;31.50;97453.84;10424564;28;1650;-52
2023/02/12 02:33:32;;;;;;;;;;;;;;;12.62;31.31;97440.84;10441234;28;1542;-53
2023/02/12 02:38:36;;;;;;;;;;;;;;;12.62;31.47;97433.03;10423455;28;1963;-50
2023/02/12 02:43:49;;;;;;;;;;;;;;;12.63;31.45;97433.84;10429832;28;1386;-49
2023/02/12 02:48:51;;;;;;;;;;;;;;;12.63;31.45;97433.84;10430408;28;1679;-48
2023/02/12 02:53:53;;;;;;;;;;;;;;;12.62;31.31;97430.44;10426519;28;1517;-52
2023/02/12 02:59:04;;;;;;;;;;;;;;;12.62;31.38;97427.81;10437343;28;1961;-50
2023/02/12 03:04:05;;;;;;;;;;;;;;;12.62;31.45;97432.22;10434480;28;1430;-52
2023/02/12 03:09:11;;;;;;;;;;;;;;;12.60;31.46;97445.41;10412960;28;1442;-50
2023/02/12 03:14:28;;;;;;;;;;;;;;;12.61;31.53;97452.22;10409552;28;1445;-50
2023/02/12 03:19:29;;;;;;;;;;;;;;;12.63;31.46;97444.25;10447607;28;1980;-50
2023/02/12 03:24:48;;;;;;;;;;;;;;;12.63;31.49;97458.03;10451293;28;1446;-52
2023/02/12 03:29:48;;;;;;;;;;;;;;;12.62;31.38;97459.03;10506265;28;1175;-53
2023/02/12 03:35:00;;;;;;;;;;;;;;;12.62;31.38;97458.22;10467795;28;1427;-51
2023/02/12 03:40:05;;;;;;;;;;;;;;;12.62;31.54;97458.22;10470331;28;2038;-51
2023/02/12 03:45:05;;;;;;;;;;;;;;;12.62;31.55;97466.03;10484102;28;1431;-51
2023/02/12 03:50:16;;;;;;;;;;;;;;;12.63;31.33;97462.47;10472535;28;1270;-50
2023/02/12 03:55:16;;;;;;;;;;;;;;;12.62;31.50;97459.03;10471727;28;1478;-52
2023/02/12 04:00:18;;;;;;;;;;;;;;;12.59;31.40;97462.00;10469196;28;1968;-52
2023/02/12 04:05:22;;;;;;;;;;;;;;;12.62;31.55;97464.25;10485473;28;1526;-50
2023/02/12 04:10:31;;;;;;;;;;;;;;;12.62;31.45;97473.84;10480302;28;1517;-55
2023/02/12 04:15:34;;;;;;;;;;;;;;;12.61;31.47;97477.44;10464947;28;1455;-53
2023/02/12 04:20:40;;;;;;;;;;;;;;;12.61;31.55;97486.03;10476049;28;1906;-55
2023/02/12 04:25:47;;;;;;;;;;;;;;;12.60;31.61;97479.22;10415153;28;2027;-51
2023/02/12 04:30:55;;;;;;;;;;;;;;;12.61;31.46;97487.84;10422535;28;2049;-53
2023/02/12 04:36:00;;;;;;;;;;;;;;;12.61;31.57;97488.63;10396208;28;2050;-53
2023/02/12 04:41:00;;;;;;;;;;;;;;;12.61;31.57;97488.63;10420442;28;2062;-48
2023/02/12 04:46:01;;;;;;;;;;;;;;;12.60;31.40;97488.81;10415030;28;2022;-51
2023/02/12 04:51:01;;;;;;;;;;;;;;;12.62;31.41;97494.66;10412873;28;1452;-54
2023/02/12 04:56:01;;;;;;;;;;;;;;;12.61;31.59;97493.06;10442515;28;1458;-52
2023/02/12 05:01:02;;;;;;;;;;;;;;;12.61;31.50;97493.84;10437327;28;1910;-53
2023/02/12 05:06:03;;;;;;;;;;;;;;;12.61;31.51;97498.25;10438534;28;1485;-53
2023/02/12 05:11:04;;;;;;;;;;;;;;;12.61;31.65;97506.06;10428439;28;1429;-52
2023/02/12 05:16:05;;;;;;;;;;;;;;;12.61;31.54;97506.06;10421527;28;1679;-52
2023/02/12 05:21:05;;;;;;;;;;;;;;;12.61;31.61;97503.47;10433613;28;1981;-53
2023/02/12 05:26:06;;;;;;;;;;;;;;;12.61;31.45;97506.06;10443717;28;1422;-53
2023/02/12 05:31:07;;;;;;;;;;;;;;;12.61;31.58;97512.03;10449231;28;1126;-53
2023/02/12 05:36:11;;;;;;;;;;;;;;;12.61;31.54;97521.66;10434768;28;1383;-52
2023/02/12 05:41:13;;;;;;;;;;;;;;;12.61;31.57;97524.28;10439164;28;1914;-50
2023/02/12 05:46:13;;;;;;;;;;;;;;;12.61;31.43;97525.06;10444397;28;1502;-50
2023/02/12 05:51:14;;;;;;;;;;;;;;;12.61;31.48;97530.25;10446854;28;1067;-52
2023/02/12 05:56:15;;;;;;;;;;;;;;;12.61;31.55;97525.06;10436585;28;1453;-54
2023/02/12 06:01:17;;;;;;;;;;;;;;;12.62;31.69;97523.25;10426993;28;1977;-53
2023/02/12 06:06:17;;;;;;;;;;;;;;;12.62;31.50;97521.47;10450507;28;1274;-54
2023/02/12 06:11:19;;;;;;;;;;;;;;;12.62;31.59;97531.06;10440269;28;1580;-53
2023/02/12 06:16:23;;;;;;;;;;;;;;;12.61;31.59;97532.84;10435776;28;1664;-51
2023/02/12 06:21:23;;;;;;;;;;;;;;;12.62;31.70;97541.47;10441768;28;1910;-54
2023/02/12 06:26:24;;;;;;;;;;;;;;;12.62;31.58;97537.09;10426642;28;1374;-51
2023/02/12 06:31:28;;;;;;;;;;;;;;;12.63;31.53;97554.28;10437624;28;1501;-53
2023/02/12 06:36:28;;;;;;;;;;;;;;;12.62;31.46;97552.69;10453549;28;1695;-51
2023/02/12 06:41:28;;;;;;;;;;;;;;;12.62;31.61;97557.09;10442492;28;2040;-51
2023/02/12 06:46:29;;;;;;;;;;;;;;;12.63;31.73;97559.50;10447259;28;1450;-49
2023/02/12 06:51:30;;;;;;;;;;;;;;;12.62;31.78;97562.28;10439821;28;1115;-52
2023/02/12 06:56:30;;;;;;;;;;;;;;;12.63;31.63;97562.09;10439645;28;1759;-55
2023/02/12 07:01:30;;;;;;;;;;;;;;;12.62;31.74;97552.69;10445158;28;1908;-53
2023/02/12 07:06:31;;;;;;;;;;;;;;;12.63;31.63;97563.91;10442447;28;1784;-52
2023/02/12 07:11:32;;;;;;;;;;;;;;;12.63;31.50;97562.09;10411635;28;1839;-52
2023/02/12 07:16:32;;;;;;;;;;;;;;;12.63;31.71;97556.13;10430405;28;1749;-50
2023/02/12 07:21:33;;;;;;;;;;;;;;;12.63;31.77;97561.31;10431258;28;1973;-54
2023/02/12 07:26:33;;;;;;;;;;;;;;;12.63;31.63;97558.72;10439956;28;1426;-52
2023/02/12 07:31:33;;;;;;;;;;;;;;;12.64;31.75;97557.72;10442322;28;1147;-54
2023/02/12 07:36:34;;;;;;;;;;;;;;;12.62;31.71;97550.09;10438780;28;1434;-55
2023/02/12 07:41:34;;;;;;;;;;;;;;;12.64;31.70;97550.72;10436383;28;1922;-51
2023/02/12 07:46:35;;;;;;;;;;;;;;;12.65;31.76;97554.91;10437632;28;1434;-54
2023/02/12 07:51:35;;;;;;;;;;;;;;;12.64;31.59;97553.31;10429276;28;1179;-54
2023/02/12 07:56:36;;;;;;;;;;;;;;;12.64;31.81;97549.91;10432034;28;1505;-52
2023/02/12 08:01:37;;;;;;;;;;;;;;;12.62;31.70;97552.69;10434296;28;1910;-50
2023/02/12 08:06:38;;;;;;;;;;;;;;;12.64;32.04;97553.31;10420755;28;1425;-54
2023/02/12 08:11:39;;;;;;;;;;;;;;;12.64;31.92;97550.72;10422993;28;1379;-53
2023/02/12 08:16:39;;;;;;;;;;;;;;;12.65;31.71;97551.53;10434603;28;1541;-54
2023/02/12 08:21:40;;;;;;;;;;;;;;;12.64;31.73;97549.91;10438805;28;1906;-52
2023/02/12 08:26:40;;;;;;;;;;;;;;;12.65;31.76;97552.31;10438209;28;1417;-50
2023/02/12 08:31:41;;;;;;;;;;;;;;;12.65;31.85;97554.13;10445927;28;1107;-55
2023/02/12 08:36:43;;;;;;;;;;;;;;;12.63;31.71;97543.88;10424801;28;1393;-55
2023/02/12 08:41:43;;;;;;;;;;;;;;;12.64;31.99;97545.53;10417814;28;2450;-50
2023/02/12 08:46:45;;;;;;;;;;;;;;;12.64;31.73;97545.53;10428849;28;1460;-53
2023/02/12 08:51:48;;;;;;;;;;;;;;;12.65;31.84;97544.53;10443198;28;1268;-51
2023/02/12 08:56:49;;;;;;;;;;;;;;;12.64;31.97;97548.13;10446665;28;1474;-51
2023/02/12 09:01:49;;;;;;;;;;;;;;;12.65;32.02;97541.91;10444387;28;1977;-54
2023/02/12 09:06:50;;;;;;;;;;;;;;;12.65;31.87;97547.13;10436286;28;988;-55
2023/02/12 09:11:50;;;;;;;;;;;;;;;12.66;31.98;97548.75;10444047;28;1437;-54
2023/02/12 09:16:51;;;;;;;;;;;;;;;12.65;32.04;97552.31;10438622;28;1403;-54
2023/02/12 09:21:52;;;;;;;;;;;;;;;12.65;31.84;97554.13;10425255;28;1983;-52
2023/02/12 09:26:52;;;;;;;;;;;;;;;12.65;31.93;97554.91;10454110;28;1442;-54
2023/02/12 09:31:52;;;;;;;;;;;;;;;12.66;31.93;97553.94;10446204;28;1823;-52
2023/02/12 09:36:53;;;;;;;;;;;;;;;12.65;31.88;97562.72;10445750;28;1465;-54
2023/02/12 09:42:06;;;;;;;;;;;;;;;12.64;32.13;97558.53;10424501;28;2002;-53
2023/02/12 09:47:09;;;;;;;;;;;;;;;12.65;31.95;97562.72;10425855;28;2052;-53
2023/02/12 09:52:12;;;;;;;;;;;;;;;12.65;32.01;97557.53;10442271;28;1998;-53
2023/02/12 09:57:20;;;;;;;;;;;;;;;12.67;32.21;97557.38;10415280;28;2014;-54
2023/02/12 10:02:20;;;;;;;;;;;;;;;12.68;32.06;97556.38;10409920;28;2124;-50
2023/02/12 10:07:46;;;;;;;;;;;;;;;12.68;32.13;97561.56;10406180;28;1978;-53
2023/02/12 10:12:55;;;;;;;;;;;;;;;12.68;32.33;97562.38;10413590;28;1490;-54
2023/02/12 10:18:10;;;;;;;;;;;;;;;12.69;32.21;97560.59;10448888;28;1882;-52
2023/02/12 10:23:23;;;;;;;;;;;;;;;12.69;32.29;97558.81;10420376;28;1626;-52
2023/02/12 10:28:27;;;;;;;;;;;;;;;12.69;32.18;97569.22;10442010;28;1617;-53
2023/02/12 10:33:32;;;;;;;;;;;;;;;12.69;32.13;97563.19;10417992;28;1390;-54
2023/02/12 10:38:34;;;;;;;;;;;;;;;12.69;32.31;97558.81;10422121;28;1959;-54
2023/02/12 10:43:34;;;;;;;;;;;;;;;12.70;32.14;97563.00;10415771;28;1485;-55
2023/02/12 10:48:36;;;;;;;;;;;;;;;12.69;32.41;97564.00;10433827;28;1441;-52
2023/02/12 10:53:40;;;;;;;;;;;;;;;12.70;32.26;97564.78;10423097;28;1406;-54
2023/02/12 10:58:42;;;;;;;;;;;;;;;12.70;32.50;97565.63;10444879;28;1965;-52
2023/02/12 11:03:42;;;;;;;;;;;;;;;12.70;32.40;97568.22;10437829;28;1553;-54
2023/02/12 11:08:42;;;;;;;;;;;;;;;12.72;32.31;97558.44;10423748;28;1124;-50
2023/02/12 11:13:44;;;;;;;;;;;;;;;12.73;32.45;97564.44;10437353;28;1650;-52
2023/02/12 11:18:44;;;;;;;;;;;;;;;12.71;32.38;97550.81;10428216;28;1981;-51
2023/02/12 11:23:45;;;;;;;;;;;;;;;12.73;32.44;97543.63;10445176;28;1670;-50
2023/02/12 11:28:58;;;;;;;;;;;;;;;12.75;32.36;97546.88;10484292;28;1691;-54
2023/02/12 11:34:14;;;;;;;;;;;;;;;12.77;32.41;97537.09;10476732;28;1419;-52
2023/02/12 11:39:33;;;;;;;;;;;;;;;12.79;32.58;97537.72;10488764;28;1906;-51
2023/02/12 11:44:37;;;;;;;;;;;;;;;12.80;32.52;97539.31;10478535;28;1731;-54
2023/02/12 11:49:41;;;;;;;;;;;;;;;12.80;32.67;97532.31;10484093;28;1134;-54
2023/02/12 11:54:41;;;;;;;;;;;;;;;12.83;32.63;97524.16;10461893;28;1352;-54
2023/02/12 11:59:41;;;;;;;;;;;;;;;12.88;32.70;97523.63;10496061;28;1973;-52
2023/02/12 12:04:42;;;;;;;;;;;;;;;12.91;32.78;97521.44;10471363;28;1453;-53
2023/02/12 12:09:43;;;;;;;;;;;;;;;12.94;32.64;97515.09;10478502;28;1864;-56
2023/02/12 12:20:11;;;;;;;;;;;;;;;12.98;32.67;97504.09;10483975;28;1963;-50
2023/02/12 12:25:15;;;;;;;;;;;;;;;13.01;32.70;97495.13;10472733;28;1492;-54
2023/02/12 12:30:17;;;;;;;;;;;;;;;13.05;32.67;97499.81;10488913;28;1071;-50
2023/02/12 12:35:18;;;;;;;;;;;;;;;13.05;32.70;97497.22;10476474;28;1528;-52
2023/02/12 12:40:22;;;;;;;;;;;;;;;13.07;32.85;97495.22;10471460;28;1894;-51
2023/02/12 12:45:52;;;;;;;;;;;;;;;13.11;32.74;97492.28;10464446;28;1473;-55
2023/02/12 12:51:10;;;;;;;;;;;;;;;13.11;32.67;97493.06;10476329;28;1211;-55
2023/02/12 12:56:14;;;;;;;;;;;;;;;13.13;32.82;97490.28;10467448;28;1462;-51
2023/02/12 13:01:33;;;;;;;;;;;;;;;13.13;32.82;97498.09;10487359;28;1898;-53
2023/02/12 13:06:48;;;;;;;;;;;;;;;13.14;32.67;97495.31;10465952;28;1475;-54
2023/02/12 13:11:48;;;;;;;;;;;;;;;13.14;32.67;97494.50;10468724;28;1360;-55
2023/02/12 13:16:50;;;;;;;;;;;;;;;13.15;32.56;97488.31;10479994;28;1774;-52
2023/02/12 13:22:03;;;;;;;;;;;;;;;13.15;32.78;97488.31;10465062;28;1975;-53
2023/02/12 13:27:19;;;;;;;;;;;;;;;13.25;32.77;97487.00;10442221;28;1517;-53
2023/02/12 13:32:25;;;;;;;;;;;;;;;13.35;32.68;97481.50;10440243;28;1407;-53
2023/02/12 13:37:28;;;;;;;;;;;;;;;13.43;32.86;97490.00;10423848;28;1871;-52
2023/02/12 13:42:38;;;;;;;;;;;;;;;13.54;32.93;97475.66;10402958;28;1955;-52
2023/02/12 13:47:38;;;;;;;;;;;;;;;13.55;32.35;97483.28;10420818;28;1969;-53
2023/02/12 13:52:48;;;;;;;;;;;;;;;13.54;32.70;97480.88;10417730;28;2012;-54
2023/02/12 13:58:08;;;;;;;;;;;;;;;13.55;32.80;97472.88;10405453;28;2045;-52
2023/02/12 14:03:08;;;;;;;;;;;;;;;13.60;32.86;97472.31;10404464;28;2107;-50
2023/02/12 14:08:20;;;;;;;;;;;;;;;13.63;32.72;97474.53;10420807;28;1966;-50
2023/02/12 14:13:21;;;;;;;;;;;;;;;13.70;32.62;97473.56;10408980;28;2080;-53
2023/02/12 14:18:24;;;;;;;;;;;;;;;13.81;32.44;97472.25;10405901;28;1985;-52
2023/02/12 14:23:26;;;;;;;;;;;;;;;13.76;32.49;97464.22;10424398;28;2032;-54
2023/02/12 14:28:45;;;;;;;;;;;;;;;13.73;32.73;97467.19;10428498;28;1962;-54
2023/02/12 14:33:45;;;;;;;;;;;;;;;13.72;32.89;97468.19;10423796;28;2081;-55
2023/02/12 14:38:45;;;;;;;;;;;;;;;13.73;32.74;97477.63;10436954;28;2013;-55
2023/02/12 14:44:01;;;;;;;;;;;;;;;13.72;32.63;97470.81;10418329;28;1958;-54
2023/02/12 14:49:04;;;;;;;;;;;;;;;13.72;33.47;97466.38;10420903;28;1990;-55
2023/02/12 14:54:06;;;;;;;;;;;;;;;13.78;33.55;97468.25;10418088;28;2163;-49
2023/02/12 14:59:06;;;;;;;;;;;;;;;13.89;33.99;97478.16;10432276;28;1968;-51
2023/02/12 15:04:16;;;;;;;;;;;;;;;14.03;34.36;97473.84;10427139;28;1938;-53
2023/02/12 15:09:20;;;;;;;;;;;;;;;14.22;34.50;97464.53;10418894;28;1976;-56
2023/02/12 15:14:26;;;;;;;;;;;;;;;14.48;34.66;97460.31;10413545;28;2041;-53
2023/02/12 15:19:39;;;;;;;;;;;;;;;14.47;34.61;97461.28;10419665;28;2042;-55
2023/02/12 15:24:40;;;;;;;;;;;;;;;14.65;35.45;97458.94;10435134;28;2093;-53
2023/02/12 15:29:44;;;;;;;;;;;;;;;14.69;34.61;97454.16;10478489;28;2169;-50
2023/02/12 15:34:44;;;;;;;;;;;;;;;14.79;34.71;97452.00;10457356;28;2102;-49
2023/02/12 15:39:45;;;;;;;;;;;;;;;14.86;34.69;97452.81;10460348;28;2048;-50
2023/02/12 15:44:45;;;;;;;;;;;;;;;14.90;34.77;97459.25;10453450;28;2179;-56
2023/02/12 15:49:45;;;;;;;;;;;;;;;14.98;34.54;97451.22;10456855;28;2111;-51
2023/02/12 15:54:46;;;;;;;;;;;;;;;15.14;35.02;97457.91;10463697;28;2197;-50
2023/02/12 15:59:53;;;;;;;;;;;;;;;15.29;35.17;97453.31;10458909;28;1956;-54
2023/02/12 16:04:54;;;;;;;;;;;;;;;15.34;34.67;97456.13;10472993;28;1972;-55
2023/02/12 16:09:55;;;;;;;;;;;;;;;15.41;34.71;97447.28;10462983;28;1957;-54
2023/02/12 16:14:56;;;;;;;;;;;;;;;15.49;34.44;97448.94;10463211;28;2151;-56
2023/02/12 16:19:59;;;;;;;;;;;;;;;15.58;35.26;97441.72;10477914;28;2343;-52
2023/02/12 16:24:59;;;;;;;;;;;;;;;15.75;34.72;97440.28;10427371;28;2018;-48
2023/02/12 16:30:01;;;;;;;;;;;;;;;15.95;35.04;97452.34;10414470;28;1974;-49
2023/02/12 16:35:10;;;;;;;;;;;;;;;16.09;35.00;97459.16;10416542;28;1944;-48
2023/02/12 16:40:11;;;;;;;;;;;;;;;16.20;34.32;97455.94;10421590;28;1987;-48
2023/02/12 16:45:26;;;;;;;;;;;;;;;16.29;33.96;97461.75;10406913;28;2015;-47
2023/02/12 16:50:28;;;;;;;;;;;;;;;16.38;33.94;97464.97;10409780;28;2025;-51
2023/02/12 16:55:29;;;;;;;;;;;;;;;16.43;33.66;97458.09;10408227;28;2011;-47
2023/02/12 17:00:29;;;;;;;;;;;;;;;16.50;33.54;97465.97;10422925;28;1958;-48
2023/02/12 17:05:29;;;;;;;;;;;;;;;16.59;33.44;97462.13;10420707;28;2155;-48
2023/02/12 17:10:29;;;;;;;;;;;;;;;16.67;33.33;97467.13;10437561;28;1901;-47
2023/02/12 17:15:32;;;;;;;;;;;;;;;16.75;33.65;97472.94;10425393;28;1942;-46
2023/02/12 17:20:32;;;;;;;;;;;;;;;16.79;33.95;97475.94;10414176;28;2070;-50
2023/02/12 17:25:34;;;;;;;;;;;;;;;16.88;34.43;97469.44;10425463;28;2037;-48
2023/02/12 17:30:36;;;;;;;;;;;;;;;16.95;34.62;97470.22;10426952;28;2041;-48
2023/02/12 17:35:36;;;;;;;;;;;;;;;17.04;35.24;97471.59;10427343;28;1938;-49
2023/02/12 17:40:37;;;;;;;;;;;;;;;17.10;35.12;97476.00;10442840;28;1986;-48
2023/02/12 17:45:43;;;;;;;;;;;;;;;17.17;35.21;97474.13;10440909;28;1839;-49
2023/02/12 17:50:43;;;;;;;;;;;;;;;17.26;35.12;97474.69;10428294;28;1795;-50
2023/02/12 17:55:44;;;;;;;;;;;;;;;17.30;35.75;97470.63;10419251;28;1991;-48
2023/02/12 18:00:44;;;;;;;;;;;;;;;17.37;35.10;97479.25;10427587;28;2167;-49
2023/02/12 18:05:44;;;;;;;;;;;;;;;17.41;35.29;97478.63;10427850;28;1979;-49
2023/02/12 18:10:44;;;;;;;;;;;;;;;17.45;35.25;97485.06;10428713;28;2096;-46
2023/02/12 18:15:45;;;;;;;;;;;;;;;17.49;35.05;97475.78;10430045;28;2034;-46
2023/02/12 18:20:45;;;;;;;;;;;;;;;17.57;35.07;97486.00;10424111;28;1978;-50
2023/02/12 18:25:45;;;;;;;;;;;;;;;17.65;35.21;97483.13;10421092;28;1998;-48
2023/02/12 18:30:53;;;;;;;;;;;;;;;17.62;35.24;97480.91;10403524;28;2116;-46
2023/02/12 18:36:00;;;;;;;;;;;;;;;17.66;35.11;97481.31;10420996;28;2035;-50
2023/02/12 18:41:04;;;;;;;;;;;;;;;17.72;35.12;97476.00;10426804;28;2036;-46
2023/02/12 18:46:11;;;;;;;;;;;;;;;17.82;35.32;97476.34;10424938;28;1998;-46
2023/02/12 18:51:15;;;;;;;;;;;;;;;17.96;35.14;97477.03;10426212;28;1767;-49
2023/02/12 18:56:15;;;;;;;;;;;;;;;17.97;34.63;97475.22;10435459;28;1809;-47
2023/02/12 19:01:16;;;;;;;;;;;;;;;18.00;34.45;97472.94;10434335;28;1898;-50
2023/02/12 19:06:16;;;;;;;;;;;;;;;18.03;34.15;97467.28;10433614;28;1720;-47
2023/02/12 19:11:16;;;;;;;;;;;;;;;18.04;34.23;97471.50;10425397;28;2069;-51
2023/02/12 19:16:17;;;;;;;;;;;;;;;18.08;34.55;97463.97;10432039;28;1770;-50
2023/02/12 19:21:18;;;;;;;;;;;;;;;18.09;34.35;97463.78;10439603;28;1906;-50
2023/02/12 19:26:18;;;;;;;;;;;;;;;18.08;34.74;97464.78;10428743;28;1762;-52
2023/02/12 19:31:22;;;;;;;;;;;;;;;18.08;34.47;97466.59;10433547;28;2132;-47
2023/02/12 19:36:22;;;;;;;;;;;;;;;18.20;34.22;97467.50;10437299;28;1724;-47
2023/02/12 19:41:24;;;;;;;;;;;;;;;18.21;34.41;97466.50;10436176;28;1917;-49
2023/02/12 19:46:24;;;;;;;;;;;;;;;18.22;33.69;97465.47;10443964;28;1842;-50
2023/02/12 19:51:25;;;;;;;;;;;;;;;18.32;33.89;97471.03;10425937;28;2120;-50
2023/02/12 19:56:25;;;;;;;;;;;;;;;18.40;33.59;97468.91;10427980;28;1827;-48
2023/02/12 20:01:25;;;;;;;;;;;;;;;18.44;33.63;97466.69;10419758;28;1894;-50
2023/02/12 20:06:30;;;;;;;;;;;;;;;18.51;33.43;97464.78;10439618;28;1768;-48
2023/02/12 20:11:30;;;;;;;;;;;;;;;18.55;33.33;97460.69;10413534;28;2167;-49
2023/02/12 20:16:33;;;;;;;;;;;;;;;18.61;32.99;97465.06;10419643;28;1720;-46
2023/02/12 20:21:34;;;;;;;;;;;;;;;18.64;32.97;97462.84;10431951;28;1967;-52
2023/02/12 20:26:34;;;;;;;;;;;;;;;18.71;32.75;97460.13;10435178;28;1772;-50
2023/02/12 20:31:35;;;;;;;;;;;;;;;18.72;32.93;97464.34;10426478;28;1763;-49
2023/02/12 20:36:36;;;;;;;;;;;;;;;18.76;32.69;97467.31;10415721;28;1736;-47
2023/02/12 20:41:36;;;;;;;;;;;;;;;18.75;32.47;97469.19;10430406;28;1968;-50
2023/02/12 20:46:38;;;;;;;;;;;;;;;18.75;32.87;97463.91;10434640;28;1819;-47
2023/02/12 20:51:38;;;;;;;;;;;;;;;18.79;32.81;97472.16;10437360;28;2112;-50
2023/02/12 20:56:38;;;;;;;;;;;;;;;18.77;32.82;97468.94;10437681;28;1718;-52
2023/02/12 21:01:39;;;;;;;;;;;;;;;18.78;32.38;97479.22;10445675;28;1995;-49
2023/02/12 21:06:40;;;;;;;;;;;;;;;18.76;32.49;97476.03;10441444;28;1903;-49
2023/02/12 21:11:41;;;;;;;;;;;;;;;18.74;32.51;97491.19;10440304;28;1762;-47
2023/02/12 21:16:41;;;;;;;;;;;;;;;18.72;32.55;97488.00;10428022;28;2254;-48
2023/02/12 21:21:43;;;;;;;;;;;;;;;18.66;33.14;97484.44;10436258;28;2097;-48
2023/02/12 21:26:44;;;;;;;;;;;;;;;18.58;33.01;97481.28;10429786;28;1938;-49
2023/02/12 21:31:45;;;;;;;;;;;;;;;18.52;32.97;97487.41;10422039;28;1982;-47
2023/02/12 21:36:45;;;;;;;;;;;;;;;18.45;32.85;97481.41;10420109;28;1959;-50
2023/02/12 21:41:45;;;;;;;;;;;;;;;18.37;33.00;97485.13;10430267;28;1961;-47
2023/02/12 21:46:46;;;;;;;;;;;;;;;18.35;32.97;97494.22;10417727;28;1952;-48
2023/02/12 21:51:46;;;;;;;;;;;;;;;18.32;32.88;97497.28;10427267;28;1998;-49
2023/02/12 21:56:47;;;;;;;;;;;;;;;18.28;33.06;97483.78;10412989;28;1934;-49
2023/02/12 22:01:48;;;;;;;;;;;;;;;18.26;33.25;97498.94;10425535;28;1969;-51
2023/02/12 22:06:48;;;;;;;;;;;;;;;18.24;33.03;97493.09;10416508;28;2048;-48
2023/02/12 22:11:50;;;;;;;;;;;;;;;18.22;33.20;97489.09;10426493;28;1962;-47
2023/02/12 22:16:51;;;;;;;;;;;;;;;18.21;33.18;97490.94;10425354;28;2048;-49
2023/02/12 22:21:51;;;;;;;;;;;;;;;18.21;33.38;97495.38;10422731;28;2025;-50
2023/02/12 22:26:52;;;;;;;;;;;;;;;18.19;33.58;97502.66;10416139;28;1969;-48
2023/02/12 22:31:53;;;;;;;;;;;;;;;18.18;33.58;97498.41;10432817;28;1954;-50
2023/02/12 22:36:53;;;;;;;;;;;;;;;18.19;33.54;97502.66;10423064;28;2092;-53
2023/02/12 22:41:53;;;;;;;;;;;;;;;18.18;33.62;97499.22;10432712;28;2008;-50
2023/02/12 22:46:53;;;;;;;;;;;;;;;18.19;33.79;97502.66;10430751;28;1943;-49
2023/02/12 22:51:54;;;;;;;;;;;;;;;18.19;33.71;97498.22;10417870;28;1935;-50
2023/02/12 22:56:54;;;;;;;;;;;;;;;18.20;33.47;97494.56;10424238;28;1974;-46
2023/02/12 23:01:54;;;;;;;;;;;;;;;18.20;33.23;97494.56;10423325;28;2111;-46
2023/02/12 23:06:54;;;;;;;;;;;;;;;18.21;33.50;97485.69;10413503;28;2096;-47
2023/02/12 23:11:55;;;;;;;;;;;;;;;18.24;33.28;97484.41;10396563;28;1951;-47
2023/02/12 23:16:55;;;;;;;;;;;;;;;18.24;33.18;97489.66;10421232;28;1974;-47
2023/02/12 23:21:55;;;;;;;;;;;;;;;18.25;33.16;97493.91;10417368;28;2040;-47
2023/02/12 23:26:56;;;;;;;;;;;;;;;18.24;33.26;97489.66;10418953;28;1920;-47
2023/02/12 23:31:56;;;;;;;;;;;;;;;18.24;33.51;97493.09;10420799;28;1995;-50
2023/02/12 23:36:56;;;;;;;;;;;;;;;18.23;33.32;97488.06;10411322;28;1950;-47
2023/02/12 23:41:56;;;;;;;;;;;;;;;18.23;33.24;97482.81;10415041;28;2005;-46
2023/02/12 23:46:57;;;;;;;;;;;;;;;18.26;33.26;97477.16;10423321;28;1982;-46
2023/02/12 23:51:57;;;;;;;;;;;;;;;18.23;33.40;97483.63;10415688;28;2121;-49
2023/02/12 23:56:57;;;;;;;;;;;;;;;18.24;33.29;97479.97;10419222;28;2030;-46
